sensor_id;sensor_type;location;lat;lon;timestamp;temperature;humidity
44121;DHT22;29783;52.504;13.478;2022-07-29T00:00:13;16.20;63.80
44121;DHT22;29783;52.504;13.478;2022-07-29T00:02:39;16.20;63.90
44121;DHT22;29783;52.504;13.478;2022-07-29T00:05:05;16.10;64.40
44121;DHT22;29783;52.504;13.478;2022-07-29T00:07:30;16.10;64.50
44121;DHT22;29783;52.504;13.478;2022-07-29T00:09:56;16.00;64.80
44121;DHT22;29783;52.504;13.478;2022-07-29T00:12:24;16.00;64.80
44121;DHT22;29783;52.504;13.478;2022-07-29T00:14:50;16.00;65.00
44121;DHT22;29783;52.504;13.478;2022-07-29T00:17:15;15.90;65.50
44121;DHT22;29783;52.504;13.478;2022-07-29T00:19:41;15.90;66.00
44121;DHT22;29783;52.504;13.478;2022-07-29T00:22:07;15.80;65.90
44121;DHT22;29783;52.504;13.478;2022-07-29T00:24:32;15.90;66.00
44121;DHT22;29783;52.504;13.478;2022-07-29T00:26:58;15.70;66.30
44121;DHT22;29783;52.504;13.478;2022-07-29T00:29:23;15.70;66.60
44121;DHT22;29783;52.504;13.478;2022-07-29T00:31:49;15.70;66.80
44121;DHT22;29783;52.504;13.478;2022-07-29T00:34:15;15.70;66.80
44121;DHT22;29783;52.504;13.478;2022-07-29T00:36:59;15.70;67.20
44121;DHT22;29783;52.504;13.478;2022-07-29T00:39:24;15.70;67.40
44121;DHT22;29783;52.504;13.478;2022-07-29T00:41:50;15.70;67.40
44121;DHT22;29783;52.504;13.478;2022-07-29T00:44:16;15.70;67.30
44121;DHT22;29783;52.504;13.478;2022-07-29T00:46:41;15.70;67.60
44121;DHT22;29783;52.504;13.478;2022-07-29T00:49:07;15.70;67.80
44121;DHT22;29783;52.504;13.478;2022-07-29T00:51:35;15.70;67.70
44121;DHT22;29783;52.504;13.478;2022-07-29T00:54:02;15.70;68.00
44121;DHT22;29783;52.504;13.478;2022-07-29T00:56:30;15.60;68.70
44121;DHT22;29783;52.504;13.478;2022-07-29T00:58:57;15.50;68.70
44121;DHT22;29783;52.504;13.478;2022-07-29T01:01:22;15.50;68.70
44121;DHT22;29783;52.504;13.478;2022-07-29T01:03:48;15.60;68.60
44121;DHT22;29783;52.504;13.478;2022-07-29T01:06:18;15.60;68.90
44121;DHT22;29783;52.504;13.478;2022-07-29T01:08:47;15.50;69.20
44121;DHT22;29783;52.504;13.478;2022-07-29T01:11:15;15.50;69.50
44121;DHT22;29783;52.504;13.478;2022-07-29T01:13:42;15.40;69.50
44121;DHT22;29783;52.504;13.478;2022-07-29T01:16:15;15.50;69.30
44121;DHT22;29783;52.504;13.478;2022-07-29T01:18:47;15.40;69.40
44121;DHT22;29783;52.504;13.478;2022-07-29T01:26:52;15.40;69.50
44121;DHT22;29783;52.504;13.478;2022-07-29T01:29:49;15.50;69.40
44121;DHT22;29783;52.504;13.478;2022-07-29T01:32:20;15.40;69.50
44121;DHT22;29783;52.504;13.478;2022-07-29T01:34:57;15.40;69.50
44121;DHT22;29783;52.504;13.478;2022-07-29T01:40:33;15.30;70.20
44121;DHT22;29783;52.504;13.478;2022-07-29T01:43:06;15.20;70.60
44121;DHT22;29783;52.504;13.478;2022-07-29T01:45:43;15.20;70.20
44121;DHT22;29783;52.504;13.478;2022-07-29T01:48:20;15.20;70.10
44121;DHT22;29783;52.504;13.478;2022-07-29T01:50:49;15.30;70.20
44121;DHT22;29783;52.504;13.478;2022-07-29T01:53:23;15.30;70.20
44121;DHT22;29783;52.504;13.478;2022-07-29T01:55:52;15.30;70.10
44121;DHT22;29783;52.504;13.478;2022-07-29T01:58:19;15.20;70.20
44121;DHT22;29783;52.504;13.478;2022-07-29T02:00:46;15.30;70.10
44121;DHT22;29783;52.504;13.478;2022-07-29T02:03:14;15.30;69.90
44121;DHT22;29783;52.504;13.478;2022-07-29T02:05:43;15.30;70.10
44121;DHT22;29783;52.504;13.478;2022-07-29T02:08:10;15.20;70.40
44121;DHT22;29783;52.504;13.478;2022-07-29T02:10:38;15.20;70.30
44121;DHT22;29783;52.504;13.478;2022-07-29T02:13:06;15.20;70.40
44121;DHT22;29783;52.504;13.478;2022-07-29T02:15:34;15.20;70.30
44121;DHT22;29783;52.504;13.478;2022-07-29T02:18:16;15.10;70.70
44121;DHT22;29783;52.504;13.478;2022-07-29T02:20:47;15.00;71.20
44121;DHT22;29783;52.504;13.478;2022-07-29T02:23:22;14.90;71.60
44121;DHT22;29783;52.504;13.478;2022-07-29T02:25:47;14.90;71.90
44121;DHT22;29783;52.504;13.478;2022-07-29T02:28:14;14.80;72.10
44121;DHT22;29783;52.504;13.478;2022-07-29T02:30:42;14.80;72.40
44121;DHT22;29783;52.504;13.478;2022-07-29T02:33:11;14.80;72.10
44121;DHT22;29783;52.504;13.478;2022-07-29T02:35:38;15.00;71.50
44121;DHT22;29783;52.504;13.478;2022-07-29T02:38:06;15.00;71.50
44121;DHT22;29783;52.504;13.478;2022-07-29T02:40:52;15.00;71.50
44121;DHT22;29783;52.504;13.478;2022-07-29T02:43:19;15.10;71.20
44121;DHT22;29783;52.504;13.478;2022-07-29T02:45:47;15.10;71.50
44121;DHT22;29783;52.504;13.478;2022-07-29T02:48:16;15.10;71.60
44121;DHT22;29783;52.504;13.478;2022-07-29T02:50:50;15.10;71.40
44121;DHT22;29783;52.504;13.478;2022-07-29T02:53:22;15.10;71.40
44121;DHT22;29783;52.504;13.478;2022-07-29T02:58:29;15.10;71.20
44121;DHT22;29783;52.504;13.478;2022-07-29T03:00:58;15.20;70.90
44121;DHT22;29783;52.504;13.478;2022-07-29T03:03:28;15.20;70.90
44121;DHT22;29783;52.504;13.478;2022-07-29T03:05:56;15.20;71.30
44121;DHT22;29783;52.504;13.478;2022-07-29T03:08:23;15.10;71.50
44121;DHT22;29783;52.504;13.478;2022-07-29T03:10:50;15.10;71.40
44121;DHT22;29783;52.504;13.478;2022-07-29T03:13:17;15.20;71.10
44121;DHT22;29783;52.504;13.478;2022-07-29T03:15:45;15.20;71.10
44121;DHT22;29783;52.504;13.478;2022-07-29T03:18:11;15.20;70.70
44121;DHT22;29783;52.504;13.478;2022-07-29T03:20:38;15.20;70.70
44121;DHT22;29783;52.504;13.478;2022-07-29T03:23:04;15.20;71.00
44121;DHT22;29783;52.504;13.478;2022-07-29T03:25:30;15.20;71.20
44121;DHT22;29783;52.504;13.478;2022-07-29T03:27:55;15.30;70.60
44121;DHT22;29783;52.504;13.478;2022-07-29T03:30:22;15.30;70.60
44121;DHT22;29783;52.504;13.478;2022-07-29T03:32:48;15.20;70.70
44121;DHT22;29783;52.504;13.478;2022-07-29T03:35:14;15.30;71.00
44121;DHT22;29783;52.504;13.478;2022-07-29T03:37:42;15.30;70.70
44121;DHT22;29783;52.504;13.478;2022-07-29T03:40:09;15.30;70.50
44121;DHT22;29783;52.504;13.478;2022-07-29T03:42:38;15.30;70.80
44121;DHT22;29783;52.504;13.478;2022-07-29T03:45:12;15.20;70.90
44121;DHT22;29783;52.504;13.478;2022-07-29T03:47:42;15.20;70.70
44121;DHT22;29783;52.504;13.478;2022-07-29T03:50:11;15.20;70.90
44121;DHT22;29783;52.504;13.478;2022-07-29T03:52:37;15.20;70.70
44121;DHT22;29783;52.504;13.478;2022-07-29T03:55:04;15.20;70.80
44121;DHT22;29783;52.504;13.478;2022-07-29T03:57:30;15.20;70.80
44121;DHT22;29783;52.504;13.478;2022-07-29T03:59:57;15.20;71.10
44121;DHT22;29783;52.504;13.478;2022-07-29T04:02:23;15.20;71.40
44121;DHT22;29783;52.504;13.478;2022-07-29T04:04:51;15.20;70.70
44121;DHT22;29783;52.504;13.478;2022-07-29T04:07:17;15.30;70.80
44121;DHT22;29783;52.504;13.478;2022-07-29T04:09:42;15.30;70.70
44121;DHT22;29783;52.504;13.478;2022-07-29T04:12:08;15.30;70.80
44121;DHT22;29783;52.504;13.478;2022-07-29T04:14:34;15.40;70.60
44121;DHT22;29783;52.504;13.478;2022-07-29T04:17:01;15.50;70.80
44121;DHT22;29783;52.504;13.478;2022-07-29T04:19:27;15.50;70.10
44121;DHT22;29783;52.504;13.478;2022-07-29T04:21:53;15.50;70.20
44121;DHT22;29783;52.504;13.478;2022-07-29T04:24:18;15.60;70.00
44121;DHT22;29783;52.504;13.478;2022-07-29T04:26:46;15.60;69.60
44121;DHT22;29783;52.504;13.478;2022-07-29T04:29:12;15.70;69.80
44121;DHT22;29783;52.504;13.478;2022-07-29T04:31:39;15.70;69.60
44121;DHT22;29783;52.504;13.478;2022-07-29T04:34:05;15.70;69.70
44121;DHT22;29783;52.504;13.478;2022-07-29T04:36:31;15.70;69.80
44121;DHT22;29783;52.504;13.478;2022-07-29T04:38:56;15.70;69.80
44121;DHT22;29783;52.504;13.478;2022-07-29T04:41:22;15.70;69.50
44121;DHT22;29783;52.504;13.478;2022-07-29T04:43:48;15.70;69.60
44121;DHT22;29783;52.504;13.478;2022-07-29T04:46:14;15.80;69.30
44121;DHT22;29783;52.504;13.478;2022-07-29T04:48:39;15.80;69.20
44121;DHT22;29783;52.504;13.478;2022-07-29T04:51:05;15.80;69.00
44121;DHT22;29783;52.504;13.478;2022-07-29T04:53:30;15.90;69.10
44121;DHT22;29783;52.504;13.478;2022-07-29T04:55:56;15.90;68.60
44121;DHT22;29783;52.504;13.478;2022-07-29T04:58:21;16.10;68.60
44121;DHT22;29783;52.504;13.478;2022-07-29T05:00:49;16.20;68.50
44121;DHT22;29783;52.504;13.478;2022-07-29T05:03:14;16.20;68.20
44121;DHT22;29783;52.504;13.478;2022-07-29T05:05:40;16.20;68.30
44121;DHT22;29783;52.504;13.478;2022-07-29T05:08:06;16.20;68.10
44121;DHT22;29783;52.504;13.478;2022-07-29T05:10:32;16.30;67.40
44121;DHT22;29783;52.504;13.478;2022-07-29T05:12:58;16.50;67.40
44121;DHT22;29783;52.504;13.478;2022-07-29T05:15:23;16.50;66.90
44121;DHT22;29783;52.504;13.478;2022-07-29T05:17:49;16.60;66.80
44121;DHT22;29783;52.504;13.478;2022-07-29T05:20:14;16.70;66.00
44121;DHT22;29783;52.504;13.478;2022-07-29T05:22:40;16.80;65.80
44121;DHT22;29783;52.504;13.478;2022-07-29T05:25:06;17.00;65.30
44121;DHT22;29783;52.504;13.478;2022-07-29T05:27:31;17.10;65.10
44121;DHT22;29783;52.504;13.478;2022-07-29T05:29:57;17.20;64.60
44121;DHT22;29783;52.504;13.478;2022-07-29T05:32:22;17.20;64.10
44121;DHT22;29783;52.504;13.478;2022-07-29T05:34:48;17.30;64.00
44121;DHT22;29783;52.504;13.478;2022-07-29T05:37:13;17.40;63.80
44121;DHT22;29783;52.504;13.478;2022-07-29T05:39:40;17.20;64.50
44121;DHT22;29783;52.504;13.478;2022-07-29T05:42:11;17.30;64.30
44121;DHT22;29783;52.504;13.478;2022-07-29T05:44:39;17.30;64.80
44121;DHT22;29783;52.504;13.478;2022-07-29T05:47:05;17.40;63.80
44121;DHT22;29783;52.504;13.478;2022-07-29T05:49:31;17.50;63.20
44121;DHT22;29783;52.504;13.478;2022-07-29T05:51:57;17.50;63.50
44121;DHT22;29783;52.504;13.478;2022-07-29T05:54:24;17.60;64.10
44121;DHT22;29783;52.504;13.478;2022-07-29T05:56:49;17.70;63.70
44121;DHT22;29783;52.504;13.478;2022-07-29T05:59:15;17.70;63.30
44121;DHT22;29783;52.504;13.478;2022-07-29T06:01:40;17.70;63.80
44121;DHT22;29783;52.504;13.478;2022-07-29T06:04:07;17.90;63.40
44121;DHT22;29783;52.504;13.478;2022-07-29T06:06:33;18.00;63.00
44121;DHT22;29783;52.504;13.478;2022-07-29T06:09:00;18.20;61.80
44121;DHT22;29783;52.504;13.478;2022-07-29T06:11:25;18.40;61.70
44121;DHT22;29783;52.504;13.478;2022-07-29T06:13:51;18.60;61.10
44121;DHT22;29783;52.504;13.478;2022-07-29T06:16:16;18.70;60.40
44121;DHT22;29783;52.504;13.478;2022-07-29T06:18:42;18.90;58.90
44121;DHT22;29783;52.504;13.478;2022-07-29T06:21:08;19.00;59.20
44121;DHT22;29783;52.504;13.478;2022-07-29T06:23:36;19.20;58.00
44121;DHT22;29783;52.504;13.478;2022-07-29T06:26:02;19.30;58.00
44121;DHT22;29783;52.504;13.478;2022-07-29T06:28:27;19.50;57.10
44121;DHT22;29783;52.504;13.478;2022-07-29T06:30:53;19.80;56.00
44121;DHT22;29783;52.504;13.478;2022-07-29T06:33:19;20.00;56.10
44121;DHT22;29783;52.504;13.478;2022-07-29T06:35:44;20.20;55.10
44121;DHT22;29783;52.504;13.478;2022-07-29T06:38:13;20.20;54.70
44121;DHT22;29783;52.504;13.478;2022-07-29T06:40:43;20.20;54.80
44121;DHT22;29783;52.504;13.478;2022-07-29T06:45:59;20.30;54.60
44121;DHT22;29783;52.504;13.478;2022-07-29T06:48:26;20.40;54.60
44121;DHT22;29783;52.504;13.478;2022-07-29T06:50:52;20.40;54.60
44121;DHT22;29783;52.504;13.478;2022-07-29T06:53:18;20.60;53.30
44121;DHT22;29783;52.504;13.478;2022-07-29T06:55:43;20.60;54.60
44121;DHT22;29783;52.504;13.478;2022-07-29T06:58:09;20.50;54.30
44121;DHT22;29783;52.504;13.478;2022-07-29T07:00:36;20.60;54.30
44121;DHT22;29783;52.504;13.478;2022-07-29T07:03:01;20.60;54.50
44121;DHT22;29783;52.504;13.478;2022-07-29T07:05:27;20.60;54.00
44121;DHT22;29783;52.504;13.478;2022-07-29T07:07:52;20.50;54.00
44121;DHT22;29783;52.504;13.478;2022-07-29T07:10:18;20.60;54.10
44121;DHT22;29783;52.504;13.478;2022-07-29T07:12:44;20.50;54.50
44121;DHT22;29783;52.504;13.478;2022-07-29T07:15:09;20.50;54.50
44121;DHT22;29783;52.504;13.478;2022-07-29T07:17:35;20.50;54.00
44121;DHT22;29783;52.504;13.478;2022-07-29T07:20:00;20.70;53.70
44121;DHT22;29783;52.504;13.478;2022-07-29T07:22:26;21.20;52.70
44121;DHT22;29783;52.504;13.478;2022-07-29T07:24:51;21.40;51.90
44121;DHT22;29783;52.504;13.478;2022-07-29T07:27:17;21.50;51.60
44121;DHT22;29783;52.504;13.478;2022-07-29T07:29:42;21.30;52.50
44121;DHT22;29783;52.504;13.478;2022-07-29T07:32:08;21.30;52.10
44121;DHT22;29783;52.504;13.478;2022-07-29T07:34:34;21.30;52.50
44121;DHT22;29783;52.504;13.478;2022-07-29T07:37:00;21.50;52.40
44121;DHT22;29783;52.504;13.478;2022-07-29T07:39:26;21.70;51.90
44121;DHT22;29783;52.504;13.478;2022-07-29T07:41:52;21.70;51.20
44121;DHT22;29783;52.504;13.478;2022-07-29T07:44:17;21.80;51.00
44121;DHT22;29783;52.504;13.478;2022-07-29T07:46:43;21.90;50.60
44121;DHT22;29783;52.504;13.478;2022-07-29T07:49:10;22.10;50.40
44121;DHT22;29783;52.504;13.478;2022-07-29T07:51:36;22.20;50.10
44121;DHT22;29783;52.504;13.478;2022-07-29T07:54:02;22.30;49.80
44121;DHT22;29783;52.504;13.478;2022-07-29T07:56:27;22.40;49.70
44121;DHT22;29783;52.504;13.478;2022-07-29T07:58:53;22.60;49.70
44121;DHT22;29783;52.504;13.478;2022-07-29T08:01:18;22.70;49.00
44121;DHT22;29783;52.504;13.478;2022-07-29T08:03:48;22.70;49.00
44121;DHT22;29783;52.504;13.478;2022-07-29T08:06:14;22.80;48.20
44121;DHT22;29783;52.504;13.478;2022-07-29T08:08:40;22.90;48.10
44121;DHT22;29783;52.504;13.478;2022-07-29T08:11:06;23.10;47.60
44121;DHT22;29783;52.504;13.478;2022-07-29T08:13:31;23.20;47.30
44121;DHT22;29783;52.504;13.478;2022-07-29T08:15:58;23.40;46.70
44121;DHT22;29783;52.504;13.478;2022-07-29T08:18:27;23.60;46.10
44121;DHT22;29783;52.504;13.478;2022-07-29T08:20:52;23.70;46.20
44121;DHT22;29783;52.504;13.478;2022-07-29T08:23:18;23.80;45.90
44121;DHT22;29783;52.504;13.478;2022-07-29T08:25:48;24.10;45.40
44121;DHT22;29783;52.504;13.478;2022-07-29T08:28:14;24.10;44.20
44121;DHT22;29783;52.504;13.478;2022-07-29T08:30:40;24.20;44.50
44121;DHT22;29783;52.504;13.478;2022-07-29T08:33:05;24.20;44.40
44121;DHT22;29783;52.504;13.478;2022-07-29T08:35:31;24.20;44.60
44121;DHT22;29783;52.504;13.478;2022-07-29T08:37:56;24.30;44.20
44121;DHT22;29783;52.504;13.478;2022-07-29T08:40:23;24.30;44.50
44121;DHT22;29783;52.504;13.478;2022-07-29T08:42:49;24.30;44.50
44121;DHT22;29783;52.504;13.478;2022-07-29T08:45:15;24.20;44.50
44121;DHT22;29783;52.504;13.478;2022-07-29T08:47:41;24.20;44.30
44121;DHT22;29783;52.504;13.478;2022-07-29T08:50:09;24.20;44.20
44121;DHT22;29783;52.504;13.478;2022-07-29T08:52:40;24.20;44.40
44121;DHT22;29783;52.504;13.478;2022-07-29T08:55:08;24.40;44.10
44121;DHT22;29783;52.504;13.478;2022-07-29T08:57:35;24.40;44.50
44121;DHT22;29783;52.504;13.478;2022-07-29T09:00:03;24.50;43.30
44121;DHT22;29783;52.504;13.478;2022-07-29T09:02:35;24.60;43.60
44121;DHT22;29783;52.504;13.478;2022-07-29T09:05:01;24.60;43.10
44121;DHT22;29783;52.504;13.478;2022-07-29T09:07:28;24.60;42.70
44121;DHT22;29783;52.504;13.478;2022-07-29T09:09:54;24.60;43.30
44121;DHT22;29783;52.504;13.478;2022-07-29T09:12:20;24.70;42.60
44121;DHT22;29783;52.504;13.478;2022-07-29T09:14:47;24.70;42.70
44121;DHT22;29783;52.504;13.478;2022-07-29T09:17:14;24.70;42.20
44121;DHT22;29783;52.504;13.478;2022-07-29T09:19:42;24.90;42.10
44121;DHT22;29783;52.504;13.478;2022-07-29T09:22:08;24.90;41.50
44121;DHT22;29783;52.504;13.478;2022-07-29T09:24:42;25.20;41.40
44121;DHT22;29783;52.504;13.478;2022-07-29T09:27:24;25.40;41.70
44121;DHT22;29783;52.504;13.478;2022-07-29T09:30:07;25.50;40.70
44121;DHT22;29783;52.504;13.478;2022-07-29T09:32:57;25.50;40.60
44121;DHT22;29783;52.504;13.478;2022-07-29T09:35:25;25.40;40.30
44121;DHT22;29783;52.504;13.478;2022-07-29T09:37:51;25.50;40.50
44121;DHT22;29783;52.504;13.478;2022-07-29T09:40:25;25.70;40.40
44121;DHT22;29783;52.504;13.478;2022-07-29T09:42:51;25.80;39.50
44121;DHT22;29783;52.504;13.478;2022-07-29T09:45:32;26.10;39.20
44121;DHT22;29783;52.504;13.478;2022-07-29T09:47:58;26.10;38.40
44121;DHT22;29783;52.504;13.478;2022-07-29T09:50:41;26.10;38.50
44121;DHT22;29783;52.504;13.478;2022-07-29T09:53:07;26.30;37.80
44121;DHT22;29783;52.504;13.478;2022-07-29T09:55:47;26.40;38.00
44121;DHT22;29783;52.504;13.478;2022-07-29T09:58:20;26.80;36.90
44121;DHT22;29783;52.504;13.478;2022-07-29T10:00:48;27.00;36.60
44121;DHT22;29783;52.504;13.478;2022-07-29T10:03:15;27.10;36.50
44121;DHT22;29783;52.504;13.478;2022-07-29T10:05:42;27.10;36.40
44121;DHT22;29783;52.504;13.478;2022-07-29T10:08:08;27.10;36.10
44121;DHT22;29783;52.504;13.478;2022-07-29T10:10:36;27.30;36.30
44121;DHT22;29783;52.504;13.478;2022-07-29T10:13:05;27.70;35.00
44121;DHT22;29783;52.504;13.478;2022-07-29T10:15:33;28.00;34.00
44121;DHT22;29783;52.504;13.478;2022-07-29T10:17:59;28.30;33.80
44121;DHT22;29783;52.504;13.478;2022-07-29T10:20:26;28.70;33.70
44121;DHT22;29783;52.504;13.478;2022-07-29T10:22:53;28.70;32.80
44121;DHT22;29783;52.504;13.478;2022-07-29T10:25:19;28.60;33.20
44121;DHT22;29783;52.504;13.478;2022-07-29T10:27:46;28.60;32.50
44121;DHT22;29783;52.504;13.478;2022-07-29T10:30:14;28.30;32.40
44121;DHT22;29783;52.504;13.478;2022-07-29T10:35:42;28.40;33.20
44121;DHT22;29783;52.504;13.478;2022-07-29T10:43:56;28.40;32.20
44121;DHT22;29783;52.504;13.478;2022-07-29T10:46:23;28.90;32.10
44121;DHT22;29783;52.504;13.478;2022-07-29T10:49:18;28.90;31.50
44121;DHT22;29783;52.504;13.478;2022-07-29T10:54:35;29.20;31.90
44121;DHT22;29783;52.504;13.478;2022-07-29T10:57:24;29.60;31.40
44121;DHT22;29783;52.504;13.478;2022-07-29T11:05:00;30.20;30.90
44121;DHT22;29783;52.504;13.478;2022-07-29T11:07:27;30.20;30.60
44121;DHT22;29783;52.504;13.478;2022-07-29T11:15:05;30.30;29.60
44121;DHT22;29783;52.504;13.478;2022-07-29T11:22:58;29.70;31.40
44121;DHT22;29783;52.504;13.478;2022-07-29T11:25:24;29.60;31.70
44121;DHT22;29783;52.504;13.478;2022-07-29T11:27:51;29.50;32.00
44121;DHT22;29783;52.504;13.478;2022-07-29T11:30:18;29.10;32.40
44121;DHT22;29783;52.504;13.478;2022-07-29T11:32:44;28.90;32.30
44121;DHT22;29783;52.504;13.478;2022-07-29T11:35:14;28.70;32.70
44121;DHT22;29783;52.504;13.478;2022-07-29T11:37:39;28.80;33.80
44121;DHT22;29783;52.504;13.478;2022-07-29T11:45:03;29.40;32.40
44121;DHT22;29783;52.504;13.478;2022-07-29T11:47:46;29.30;32.80
44121;DHT22;29783;52.504;13.478;2022-07-29T11:50:15;29.20;33.50
44121;DHT22;29783;52.504;13.478;2022-07-29T11:52:46;29.20;33.50
44121;DHT22;29783;52.504;13.478;2022-07-29T11:55:14;29.10;33.70
44121;DHT22;29783;52.504;13.478;2022-07-29T11:57:50;29.20;34.00
44121;DHT22;29783;52.504;13.478;2022-07-29T12:00:24;29.40;34.10
44121;DHT22;29783;52.504;13.478;2022-07-29T12:02:50;29.40;34.30
44121;DHT22;29783;52.504;13.478;2022-07-29T12:05:17;29.30;34.20
44121;DHT22;29783;52.504;13.478;2022-07-29T12:07:42;29.40;34.40
44121;DHT22;29783;52.504;13.478;2022-07-29T12:10:08;29.20;34.80
44121;DHT22;29783;52.504;13.478;2022-07-29T12:12:35;29.20;35.50
44121;DHT22;29783;52.504;13.478;2022-07-29T12:15:14;29.30;35.40
44121;DHT22;29783;52.504;13.478;2022-07-29T12:17:40;29.60;35.10
44121;DHT22;29783;52.504;13.478;2022-07-29T12:20:07;30.30;34.40
44121;DHT22;29783;52.504;13.478;2022-07-29T12:22:37;31.60;33.10
44121;DHT22;29783;52.504;13.478;2022-07-29T12:25:09;32.60;31.50
44121;DHT22;29783;52.504;13.478;2022-07-29T12:27:36;33.60;30.30
44121;DHT22;29783;52.504;13.478;2022-07-29T12:30:06;34.70;28.30
44121;DHT22;29783;52.504;13.478;2022-07-29T12:32:39;35.70;27.00
44121;DHT22;29783;52.504;13.478;2022-07-29T12:35:11;35.70;26.90
44121;DHT22;29783;52.504;13.478;2022-07-29T12:37:39;36.10;26.50
44121;DHT22;29783;52.504;13.478;2022-07-29T12:40:06;36.60;24.90
44121;DHT22;29783;52.504;13.478;2022-07-29T12:42:32;37.60;24.10
44121;DHT22;29783;52.504;13.478;2022-07-29T12:44:58;38.00;24.10
44121;DHT22;29783;52.504;13.478;2022-07-29T12:47:24;38.30;24.40
44121;DHT22;29783;52.504;13.478;2022-07-29T12:49:51;38.90;23.70
44121;DHT22;29783;52.504;13.478;2022-07-29T12:52:33;39.80;22.90
44121;DHT22;29783;52.504;13.478;2022-07-29T12:55:00;41.00;21.10
44121;DHT22;29783;52.504;13.478;2022-07-29T12:57:26;40.10;21.80
44121;DHT22;29783;52.504;13.478;2022-07-29T13:00:10;39.70;21.70
44121;DHT22;29783;52.504;13.478;2022-07-29T13:02:37;38.60;23.00
44121;DHT22;29783;52.504;13.478;2022-07-29T13:05:05;36.60;25.00
44121;DHT22;29783;52.504;13.478;2022-07-29T13:07:32;35.80;25.10
44121;DHT22;29783;52.504;13.478;2022-07-29T13:10:15;35.10;26.20
44121;DHT22;29783;52.504;13.478;2022-07-29T13:15:33;37.10;24.10
44121;DHT22;29783;52.504;13.478;2022-07-29T13:17:59;37.60;24.00
44121;DHT22;29783;52.504;13.478;2022-07-29T13:20:26;37.50;23.80
44121;DHT22;29783;52.504;13.478;2022-07-29T13:22:55;37.40;23.70
44121;DHT22;29783;52.504;13.478;2022-07-29T13:25:28;37.10;24.70
44121;DHT22;29783;52.504;13.478;2022-07-29T13:27:55;36.30;24.80
44121;DHT22;29783;52.504;13.478;2022-07-29T13:30:22;35.70;25.60
44121;DHT22;29783;52.504;13.478;2022-07-29T13:32:47;35.00;27.00
44121;DHT22;29783;52.504;13.478;2022-07-29T13:35:13;35.00;27.40
44121;DHT22;29783;52.504;13.478;2022-07-29T13:37:40;34.70;27.80
44121;DHT22;29783;52.504;13.478;2022-07-29T13:40:07;34.20;28.40
44121;DHT22;29783;52.504;13.478;2022-07-29T13:42:33;35.40;27.60
44121;DHT22;29783;52.504;13.478;2022-07-29T13:44:59;36.40;25.70
44121;DHT22;29783;52.504;13.478;2022-07-29T13:47:26;37.20;25.00
44121;DHT22;29783;52.504;13.478;2022-07-29T13:49:52;38.10;24.10
44121;DHT22;29783;52.504;13.478;2022-07-29T13:52:19;38.40;23.90
44121;DHT22;29783;52.504;13.478;2022-07-29T13:54:44;38.90;23.10
44121;DHT22;29783;52.504;13.478;2022-07-29T13:57:10;38.70;23.20
44121;DHT22;29783;52.504;13.478;2022-07-29T13:59:36;37.60;24.60
44121;DHT22;29783;52.504;13.478;2022-07-29T14:02:02;37.50;24.60
44121;DHT22;29783;52.504;13.478;2022-07-29T14:04:28;37.50;24.70
44121;DHT22;29783;52.504;13.478;2022-07-29T14:06:54;38.10;24.10
44121;DHT22;29783;52.504;13.478;2022-07-29T14:09:20;38.90;23.10
44121;DHT22;29783;52.504;13.478;2022-07-29T14:11:45;38.80;23.30
44121;DHT22;29783;52.504;13.478;2022-07-29T14:14:13;38.20;24.20
44121;DHT22;29783;52.504;13.478;2022-07-29T14:16:38;38.40;24.10
44121;DHT22;29783;52.504;13.478;2022-07-29T14:19:04;38.30;23.90
44121;DHT22;29783;52.504;13.478;2022-07-29T14:21:30;38.00;24.50
44121;DHT22;29783;52.504;13.478;2022-07-29T14:23:55;37.80;24.20
44121;DHT22;29783;52.504;13.478;2022-07-29T14:26:21;38.90;23.40
44121;DHT22;29783;52.504;13.478;2022-07-29T14:28:48;38.40;24.00
44121;DHT22;29783;52.504;13.478;2022-07-29T14:31:14;38.30;24.00
44121;DHT22;29783;52.504;13.478;2022-07-29T14:33:39;37.10;25.20
44121;DHT22;29783;52.504;13.478;2022-07-29T14:36:05;35.70;26.60
44121;DHT22;29783;52.504;13.478;2022-07-29T14:38:31;36.60;26.00
44121;DHT22;29783;52.504;13.478;2022-07-29T14:40:56;36.80;25.40
44121;DHT22;29783;52.504;13.478;2022-07-29T14:43:22;37.60;24.70
44121;DHT22;29783;52.504;13.478;2022-07-29T14:45:47;37.90;24.30
44121;DHT22;29783;52.504;13.478;2022-07-29T14:48:13;38.30;23.90
44121;DHT22;29783;52.504;13.478;2022-07-29T14:50:38;38.00;24.40
44121;DHT22;29783;52.504;13.478;2022-07-29T14:53:04;37.20;24.90
44121;DHT22;29783;52.504;13.478;2022-07-29T14:55:30;36.50;25.50
44121;DHT22;29783;52.504;13.478;2022-07-29T14:57:55;35.80;26.00
44121;DHT22;29783;52.504;13.478;2022-07-29T15:00:21;35.60;26.00
44121;DHT22;29783;52.504;13.478;2022-07-29T15:02:48;36.40;25.30
44121;DHT22;29783;52.504;13.478;2022-07-29T15:05:13;37.60;23.80
44121;DHT22;29783;52.504;13.478;2022-07-29T15:07:39;37.60;23.70
44121;DHT22;29783;52.504;13.478;2022-07-29T15:10:05;37.30;23.70
44121;DHT22;29783;52.504;13.478;2022-07-29T15:12:31;37.50;24.10
44121;DHT22;29783;52.504;13.478;2022-07-29T15:14:57;38.00;23.90
44121;DHT22;29783;52.504;13.478;2022-07-29T15:17:22;38.90;22.60
44121;DHT22;29783;52.504;13.478;2022-07-29T15:19:48;39.00;22.30
44121;DHT22;29783;52.504;13.478;2022-07-29T15:22:14;39.20;22.50
44121;DHT22;29783;52.504;13.478;2022-07-29T15:24:39;39.80;21.30
44121;DHT22;29783;52.504;13.478;2022-07-29T15:27:05;39.60;21.60
44121;DHT22;29783;52.504;13.478;2022-07-29T15:29:30;37.80;23.10
44121;DHT22;29783;52.504;13.478;2022-07-29T15:31:56;36.20;25.20
44121;DHT22;29783;52.504;13.478;2022-07-29T15:34:21;34.80;26.60
44121;DHT22;29783;52.504;13.478;2022-07-29T15:36:50;34.90;26.70
44121;DHT22;29783;52.504;13.478;2022-07-29T15:39:16;35.20;26.50
44121;DHT22;29783;52.504;13.478;2022-07-29T15:41:41;36.40;24.70
44121;DHT22;29783;52.504;13.478;2022-07-29T15:44:07;37.40;23.90
44121;DHT22;29783;52.504;13.478;2022-07-29T15:46:33;38.60;23.00
44121;DHT22;29783;52.504;13.478;2022-07-29T15:49:17;39.50;22.00
44121;DHT22;29783;52.504;13.478;2022-07-29T15:51:43;39.90;21.90
44121;DHT22;29783;52.504;13.478;2022-07-29T15:54:09;38.90;23.00
44121;DHT22;29783;52.504;13.478;2022-07-29T15:56:34;39.20;22.60
44121;DHT22;29783;52.504;13.478;2022-07-29T15:59:00;39.30;21.90
44121;DHT22;29783;52.504;13.478;2022-07-29T16:01:25;39.00;22.10
44121;DHT22;29783;52.504;13.478;2022-07-29T16:03:52;38.10;23.10
44121;DHT22;29783;52.504;13.478;2022-07-29T16:06:18;37.80;23.60